Bienvenue !

Nous sommes ravis de vous accueillir sur le forum des pilotes privés.
Vous êtes sur un forum de discussions public, permettant aux pilotes privés, mais aussi à tous les passionnés des choses de l'air, d"échanger leurs idées, leurs expériences, leurs questions.
S'il s'agit de votre premier accès à ce site et que vous n'avez pas créé de pseudonyme, votre accès est restreint. Vous devez obligatoirement vous enregistrer avant de pouvoir accéder à la totalité des rubriques, et apporter vos contributions. L'enregistrement ne prend que quelques secondes.
Pour cela, cliquez sur l'option "M'enregistrer " dans le menu à droite ci-dessus. Si vous possédez déjà un identifiant, indiquez-le dans la zone de saisie ci-dessous.
Nous vous remercions pour votre compréhension, et vous souhaitons de passer de bons moments sur le Forum des Pilotes Privés.

Les Administrateurs

Nice - Survol touristique de la Prom' offert aux passagers

L'aviation légère et l'aviation en général, pour les pilotes et élèves-pilotes privés, mais aussi tous les amoureux de l'aviation. Les membres inscrits ont aussi accès au "Bar de l'aéroclub".

Nice - Survol touristique de la Prom' offert aux passagers

Messagede Leon Robin le Lundi 29 Août 2016 14:10

L'équipage du vol TK1815 a offert samedi à ses passagers une visite inédite à basse hauteur (entre 400 et 1500 pieds) de la ville de Nice, survolant successivement le port, la colline du château, la vieille ville, le centre, les collines de Fabron jusqu'au Var puis une verticale terrain avant d'aller récupérer le circuit d'approche conventionnel.

Voir le tracé sur Flightradar24

On imagine que DGAC et GTA étaient au pied de la passerelle après l'atterrissage pour féliciter chaudement l'équipage et recueillir ses impressions après cette magnifique démonstration d'approche de précision.

Il n'est pas certain que tous les passagers aient apprécié cette insolite visite touristique, pas plus que les habitants et passants qui se trouvaient sous la trajectoire

Nous sommes probablement assez nombreux à attendre le compte-rendu d'incident qui devrait sous peu paraître sur le site du BEA.
Léon Robin, LFMD
" Ceux qui sont prêts à sacrifier leur liberté à leur sécurité ne méritent ni l'une, ni l'autre " (d'après Benjamin Franklin)
Site de mon aéroclub : http://aeroclub-uaca.org
Avatar de l'utilisateur
Leon Robin
Défense des plateformes
 
Messages: 14142
Inscription: Mercredi 12 Septembre 2007 22:59
Aérodrome: Cannes-Mandelieu (LFMD)
Activité/licences: PPL (ex-TT transformé)

Re: Nice - Survol touristique de la Prom' offert aux passagers

Messagede Romain le Lundi 29 Août 2016 14:23

C'était la fameuse MVI en 22 ce jour là...
Remarquable qu'un équipage ne soit pas foutu de se mettre correctement en finale...

Romain
Romain
 
Messages: 367
Inscription: Mardi 11 Août 2009 20:22
Localisation: Franconville (95)
Aérodrome: LFPT (CPAC)
Activité/licences: PPL(A) - ATP IR ME FAA

Re: Nice - Survol touristique de la Prom' offert aux passagers

Messagede Leon Robin le Lundi 29 Août 2016 14:54

Quand la 22 est en service, on observe généralement une certaine dispersion des trajectoires, certains terminant leur virage plus près du rivage que d'autres, mais les franchissements du trait de côte restent exceptionnels. Celui là semble particulièrement "gratiné", surtout la manière dont il s'est maintenu au N du rivage sur plus de 5 nautiques là où se situent les collines de Nice (Magnan, Fabron)
Au plus bas de sa trajectoire (425 ft selon la trace sur Flightradar24), le relief est entre 250 et 350 ft
Dernière édition par Leon Robin le Lundi 29 Août 2016 16:02, édité 2 fois.
Léon Robin, LFMD
" Ceux qui sont prêts à sacrifier leur liberté à leur sécurité ne méritent ni l'une, ni l'autre " (d'après Benjamin Franklin)
Site de mon aéroclub : http://aeroclub-uaca.org
Avatar de l'utilisateur
Leon Robin
Défense des plateformes
 
Messages: 14142
Inscription: Mercredi 12 Septembre 2007 22:59
Aérodrome: Cannes-Mandelieu (LFMD)
Activité/licences: PPL (ex-TT transformé)

Re: Nice - Survol touristique de la Prom' offert aux passagers

Messagede FbS le Lundi 29 Août 2016 14:56

Magnifique survol de la ville.

Bon, pour le copi, déjà, c’était probablement un pay-to-fly, puisque c'est la norme chez Turkish Airlines..

Pour le cdb, dommage...
FbS
 
Messages: 3787
Inscription: Jeudi 9 Juin 2011 14:23
Aérodrome: LFPN - Toussus
Activité/licences: ATPL con et gelé, FI-A(R) et part66 de clef de 12

Re: Nice - Survol touristique de la Prom' offert aux passagers

Messagede Pierre H. le Lundi 29 Août 2016 15:38

Et voici une photo de l'avion prise depuis le quartier Magnan de Nice, pour ceux qui connaissent.
J'y appose un copyright, car ma tante en est l'auteure Image

Elle m'a envoyé la photo par email et a demandé mon avis de neveu pilote au sujet de ce 737 particulièrement bas qui l'a fortement surprise.
Le palmier de son jardin en aurait perdu ses dattes.

Je ne pensais pas qu'ils en parleraient le lendemain dans Nice Matin et même dans le forum des pilotes privés !

[URL=http://www.hostingpics.net]Image

[/URL]
Avatar de l'utilisateur
Pierre H.
 
Messages: 1531
Inscription: Vendredi 14 Septembre 2007 23:27
Localisation: Paris-Marseille
Aérodrome: Marseille Provence (LFML) / St Cyr l'école (LFPZ)
Activité/licences: PPL-A

Re: Nice - Survol touristique de la Prom' offert aux passagers

Messagede PAPATANGOCHARLIE le Lundi 29 Août 2016 17:08

Aux niçois qui mal y pense... Image

L'équipage a du se faire pogner par les illustres caméras de Mr Estrosi...
Post Combustion



Au royaume des aveugles les borgnes seront sourds.
Avatar de l'utilisateur
PAPATANGOCHARLIE
 
Messages: 3106
Inscription: Vendredi 14 Septembre 2007 20:21
Aérodrome: Mulhouse Habsheim
Activité/licences: Petits navions classiques

Re: Nice - Survol touristique de la Prom' offert aux passagers

Messagede pilote privé le Lundi 29 Août 2016 20:20

Un sandwich d'utilisation des automatismes et du codage RNAV d'une VPT.....
Avatar de l'utilisateur
pilote privé
 
Messages: 2468
Inscription: Dimanche 30 Mars 2008 01:23
Localisation: Entre Moule, Merlu et Poulp

Re: Nice - Survol touristique de la Prom' offert aux passagers

Messagede Amaury le Mardi 30 Août 2016 09:42

pilote privé a écrit:Un sandwich d'utilisation des automatismes et du codage RNAV d'une VPT.....

?
Amaury
 
Messages: 247
Inscription: Mercredi 3 Octobre 2007 20:58
Localisation: Toulouse
Aérodrome: Sabonnères, Cazères, Quimper
Activité/licences: avion, ulm, planeur

Re: Nice - Survol touristique de la Prom' offert aux passagers

Messagede jc dusse le Mardi 30 Août 2016 13:18

Amaury a écrit:
pilote privé a écrit:Un sandwich d'utilisation des automatismes et du codage RNAV d'une VPT.....

?


Je comprends que pilote privé parlait d'une approche à vue effectuée au PA en suivant les points du FMC, en oubliant de regarder dehors, ce qui est la base d'une approche à vue...
jc dusse
 
Messages: 779
Inscription: Lundi 27 Juillet 2009 02:08

Re: Nice - Survol touristique de la Prom' offert aux passagers

Messagede Amaury le Mardi 30 Août 2016 13:38

j'avais bien compris, j'imagine que c'est une référence au concept "RNAV visual" qui est actuellement en évaluation opérationnelle sur certains terrains (Bordeaux, Tel Aviv, ...), concept actuellement sans cadre réglementaire publié, si ce n'est le FAA Order 8260.55 (cela reste des procédures privées). Néanmoins rien de tel à Nice pour Turkish, c'est une RNAV classique suivie d'une procédure à vue imposée, il n'y a pas de codage de ce segment dans les base de données du FM.
Amaury
 
Messages: 247
Inscription: Mercredi 3 Octobre 2007 20:58
Localisation: Toulouse
Aérodrome: Sabonnères, Cazères, Quimper
Activité/licences: avion, ulm, planeur

Re: Nice - Survol touristique de la Prom' offert aux passagers

Messagede FbS le Mardi 30 Août 2016 13:59

Font pas un briefing arrivée pendant l'approche chez Turkish ? J'dis ca comme ca...
FbS
 
Messages: 3787
Inscription: Jeudi 9 Juin 2011 14:23
Aérodrome: LFPN - Toussus
Activité/licences: ATPL con et gelé, FI-A(R) et part66 de clef de 12

Re: Nice - Survol touristique de la Prom' offert aux passagers

Messagede Aviathor le Mardi 30 Août 2016 18:23

Voici ce qu'écrit AvHerald à ce sujet

A THY Turkish Airlines Boeing 737-800, registration TC-JVL performing flight TK-1815 from Istanbul (Turkey) to Nice (France), was on approach to Nice's runway 22R when during the turn to final the aircraft overshot the extended runway center line taking the aircraft across the coastline over the city and descended below safe height. The crew initiated a go around at about 550 feet MSL (425 feet Transponder Altitude at 1019 hPa QNH) and climbed out to safety. The aircraft positioned for a second approach and landed safely on runway 22R about 20 minutes later.

Metars:
LFMN 271706Z 20006KT CAVOK 27/21 Q1019 NOSIG
LFMN 271630Z 19005KT CAVOK 28/21 Q1019 NOSIG
LFMN 271600Z 18005KT 9999 FEW040 28/21 Q1019 NOSIG
LFMN 271530Z 19005KT 9999 FEW040 28/20 Q1019 NOSIG
LFMN 271500Z 19004KT 9999 FEW040 28/20 Q1019 NOSIG
LFMN 271430Z 19005KT 9999 FEW040 28/20 Q1019 NOSIG
LFMN 271400Z 18005KT 9999 FEW040 28/20 Q1019 NOSIG
Aviathor
 
Messages: 2141
Inscription: Lundi 3 Août 2015 11:21
Aérodrome: LFPT, LFPN
Activité/licences: PPL(A)


Retourner vers En l'air, autour de ce qui vole

Qui est en ligne

Utilisateurs parcourant ce forum: Brunorecrin, damienw, E.T., Franklin2, Gaffozelis, Gilles131, jlsanto, Julien78510, Max8992, Splitcat et 69 invités